sensor_id;sensor_type;location;lat;lon;timestamp;temperature;humidity
63875;DHT22;51595;24.180;-110.296;2022-08-21T00:00:45;34.80;91.00
63875;DHT22;51595;24.180;-110.296;2022-08-21T00:03:13;34.40;91.00
63875;DHT22;51595;24.180;-110.296;2022-08-21T00:05:43;34.30;92.00
63875;DHT22;51595;24.180;-110.296;2022-08-21T00:08:10;33.90;93.70
63875;DHT22;51595;24.180;-110.296;2022-08-21T00:10:38;33.90;93.50
63875;DHT22;51595;24.180;-110.296;2022-08-21T00:13:05;33.60;94.00
63875;DHT22;51595;24.180;-110.296;2022-08-21T00:15:33;33.40;94.00
63875;DHT22;51595;24.180;-110.296;2022-08-21T00:18:00;33.40;94.50
63875;DHT22;51595;24.180;-110.296;2022-08-21T00:20:27;33.70;93.90
63875;DHT22;51595;24.180;-110.296;2022-08-21T00:22:54;33.80;94.20
63875;DHT22;51595;24.180;-110.296;2022-08-21T00:25:21;34.00;94.30
63875;DHT22;51595;24.180;-110.296;2022-08-21T00:27:48;33.70;94.60
63875;DHT22;51595;24.180;-110.296;2022-08-21T00:30:18;33.50;95.20
63875;DHT22;51595;24.180;-110.296;2022-08-21T00:32:45;33.70;95.10
63875;DHT22;51595;24.180;-110.296;2022-08-21T00:35:15;33.50;95.30
63875;DHT22;51595;24.180;-110.296;2022-08-21T00:37:42;33.40;95.50
63875;DHT22;51595;24.180;-110.296;2022-08-21T00:40:13;33.40;95.40
63875;DHT22;51595;24.180;-110.296;2022-08-21T00:42:41;33.20;95.50
63875;DHT22;51595;24.180;-110.296;2022-08-21T00:45:08;33.30;95.60
63875;DHT22;51595;24.180;-110.296;2022-08-21T00:47:35;33.20;95.60
63875;DHT22;51595;24.180;-110.296;2022-08-21T00:50:02;33.30;95.60
63875;DHT22;51595;24.180;-110.296;2022-08-21T00:52:32;33.10;96.00
63875;DHT22;51595;24.180;-110.296;2022-08-21T00:55:00;32.90;95.90
63875;DHT22;51595;24.180;-110.296;2022-08-21T00:57:34;33.10;95.30
63875;DHT22;51595;24.180;-110.296;2022-08-21T01:00:09;33.10;94.80
63875;DHT22;51595;24.180;-110.296;2022-08-21T01:02:36;32.70;95.10
63875;DHT22;51595;24.180;-110.296;2022-08-21T01:05:03;32.50;95.60
63875;DHT22;51595;24.180;-110.296;2022-08-21T01:07:30;32.50;95.80
63875;DHT22;51595;24.180;-110.296;2022-08-21T01:09:57;32.20;96.10
63875;DHT22;51595;24.180;-110.296;2022-08-21T01:12:24;32.20;96.30
63875;DHT22;51595;24.180;-110.296;2022-08-21T01:14:51;32.20;96.30
63875;DHT22;51595;24.180;-110.296;2022-08-21T01:17:19;32.10;96.60
63875;DHT22;51595;24.180;-110.296;2022-08-21T01:19:47;32.20;96.50
63875;DHT22;51595;24.180;-110.296;2022-08-21T01:22:13;32.20;96.60
63875;DHT22;51595;24.180;-110.296;2022-08-21T01:24:40;32.20;96.70
63875;DHT22;51595;24.180;-110.296;2022-08-21T01:27:06;32.10;97.20
63875;DHT22;51595;24.180;-110.296;2022-08-21T01:29:43;32.30;97.50
63875;DHT22;51595;24.180;-110.296;2022-08-21T01:32:14;32.00;97.80
63875;DHT22;51595;24.180;-110.296;2022-08-21T01:34:43;31.80;98.10
63875;DHT22;51595;24.180;-110.296;2022-08-21T01:37:10;31.80;98.40
63875;DHT22;51595;24.180;-110.296;2022-08-21T01:39:37;31.40;99.00
63875;DHT22;51595;24.180;-110.296;2022-08-21T01:42:04;31.40;99.40
63875;DHT22;51595;24.180;-110.296;2022-08-21T01:44:30;31.30;99.50
63875;DHT22;51595;24.180;-110.296;2022-08-21T01:46:59;31.40;99.50
63875;DHT22;51595;24.180;-110.296;2022-08-21T01:49:26;31.40;99.60
63875;DHT22;51595;24.180;-110.296;2022-08-21T01:51:53;31.50;99.60
63875;DHT22;51595;24.180;-110.296;2022-08-21T01:54:20;31.20;99.90
63875;DHT22;51595;24.180;-110.296;2022-08-21T01:56:50;31.20;99.90
63875;DHT22;51595;24.180;-110.296;2022-08-21T01:59:18;31.10;99.90
63875;DHT22;51595;24.180;-110.296;2022-08-21T02:01:44;31.10;99.90
63875;DHT22;51595;24.180;-110.296;2022-08-21T02:04:11;31.10;99.90
63875;DHT22;51595;24.180;-110.296;2022-08-21T02:06:38;31.30;99.90
63875;DHT22;51595;24.180;-110.296;2022-08-21T02:09:07;31.20;99.90
63875;DHT22;51595;24.180;-110.296;2022-08-21T02:11:35;31.20;99.90
63875;DHT22;51595;24.180;-110.296;2022-08-21T02:14:02;31.20;99.90
63875;DHT22;51595;24.180;-110.296;2022-08-21T02:16:28;31.10;99.90
63875;DHT22;51595;24.180;-110.296;2022-08-21T02:18:55;30.90;99.90
63875;DHT22;51595;24.180;-110.296;2022-08-21T02:21:21;31.00;99.90
63875;DHT22;51595;24.180;-110.296;2022-08-21T02:23:48;31.10;99.90
63875;DHT22;51595;24.180;-110.296;2022-08-21T02:26:15;31.20;99.90
63875;DHT22;51595;24.180;-110.296;2022-08-21T02:28:42;31.20;99.90
63875;DHT22;51595;24.180;-110.296;2022-08-21T02:31:09;31.30;99.90
63875;DHT22;51595;24.180;-110.296;2022-08-21T02:33:35;31.20;99.90
63875;DHT22;51595;24.180;-110.296;2022-08-21T02:36:08;31.20;99.90
63875;DHT22;51595;24.180;-110.296;2022-08-21T02:38:50;31.30;99.90
63875;DHT22;51595;24.180;-110.296;2022-08-21T02:41:21;31.30;99.90
63875;DHT22;51595;24.180;-110.296;2022-08-21T02:43:48;31.40;99.90
63875;DHT22;51595;24.180;-110.296;2022-08-21T02:46:16;31.20;99.90
63875;DHT22;51595;24.180;-110.296;2022-08-21T02:48:43;31.10;99.90
63875;DHT22;51595;24.180;-110.296;2022-08-21T02:51:18;31.10;99.90
63875;DHT22;51595;24.180;-110.296;2022-08-21T02:53:47;30.90;99.90
63875;DHT22;51595;24.180;-110.296;2022-08-21T02:56:15;30.80;99.90
63875;DHT22;51595;24.180;-110.296;2022-08-21T02:58:46;30.80;99.90
63875;DHT22;51595;24.180;-110.296;2022-08-21T03:01:13;30.50;99.90
63875;DHT22;51595;24.180;-110.296;2022-08-21T03:03:41;30.30;99.90
63875;DHT22;51595;24.180;-110.296;2022-08-21T03:06:09;30.20;99.90
63875;DHT22;51595;24.180;-110.296;2022-08-21T03:08:37;30.30;99.90
63875;DHT22;51595;24.180;-110.296;2022-08-21T03:11:04;30.10;99.90
63875;DHT22;51595;24.180;-110.296;2022-08-21T03:13:31;30.00;99.90
63875;DHT22;51595;24.180;-110.296;2022-08-21T03:15:58;30.00;99.90
63875;DHT22;51595;24.180;-110.296;2022-08-21T03:18:25;30.20;99.90
63875;DHT22;51595;24.180;-110.296;2022-08-21T03:20:51;30.00;99.90
63875;DHT22;51595;24.180;-110.296;2022-08-21T03:23:18;29.80;99.90
63875;DHT22;51595;24.180;-110.296;2022-08-21T03:25:46;29.80;99.90
63875;DHT22;51595;24.180;-110.296;2022-08-21T03:28:17;29.80;99.90
63875;DHT22;51595;24.180;-110.296;2022-08-21T03:30:46;29.80;99.90
63875;DHT22;51595;24.180;-110.296;2022-08-21T03:33:14;29.80;99.90
63875;DHT22;51595;24.180;-110.296;2022-08-21T03:35:44;29.70;99.90
63875;DHT22;51595;24.180;-110.296;2022-08-21T03:38:12;29.60;99.90
63875;DHT22;51595;24.180;-110.296;2022-08-21T03:40:39;29.50;99.90
63875;DHT22;51595;24.180;-110.296;2022-08-21T03:43:05;29.60;99.90
63875;DHT22;51595;24.180;-110.296;2022-08-21T03:45:35;29.80;99.90
63875;DHT22;51595;24.180;-110.296;2022-08-21T03:48:03;29.90;99.90
63875;DHT22;51595;24.180;-110.296;2022-08-21T03:50:33;29.90;99.90
63875;DHT22;51595;24.180;-110.296;2022-08-21T03:53:00;29.70;99.90
63875;DHT22;51595;24.180;-110.296;2022-08-21T03:55:27;29.40;99.90
63875;DHT22;51595;24.180;-110.296;2022-08-21T03:57:53;29.30;99.90
63875;DHT22;51595;24.180;-110.296;2022-08-21T04:00:21;29.30;99.90
63875;DHT22;51595;24.180;-110.296;2022-08-21T04:02:48;29.30;99.90
63875;DHT22;51595;24.180;-110.296;2022-08-21T04:05:15;29.00;99.90
63875;DHT22;51595;24.180;-110.296;2022-08-21T04:08:01;28.90;99.90
63875;DHT22;51595;24.180;-110.296;2022-08-21T04:10:29;28.90;99.90
63875;DHT22;51595;24.180;-110.296;2022-08-21T04:12:56;28.90;99.90
63875;DHT22;51595;24.180;-110.296;2022-08-21T04:15:24;28.90;99.90
63875;DHT22;51595;24.180;-110.296;2022-08-21T04:17:51;29.00;99.90
63875;DHT22;51595;24.180;-110.296;2022-08-21T04:20:19;29.00;99.90
63875;DHT22;51595;24.180;-110.296;2022-08-21T04:22:45;28.70;99.90
63875;DHT22;51595;24.180;-110.296;2022-08-21T04:25:13;28.50;99.90
63875;DHT22;51595;24.180;-110.296;2022-08-21T04:27:40;28.80;99.90
63875;DHT22;51595;24.180;-110.296;2022-08-21T04:30:08;28.90;99.90
63875;DHT22;51595;24.180;-110.296;2022-08-21T04:32:41;29.00;99.90
63875;DHT22;51595;24.180;-110.296;2022-08-21T04:35:09;29.00;99.90
63875;DHT22;51595;24.180;-110.296;2022-08-21T04:37:36;29.10;99.90
63875;DHT22;51595;24.180;-110.296;2022-08-21T04:40:04;29.20;99.90
63875;DHT22;51595;24.180;-110.296;2022-08-21T04:42:31;29.20;99.90
63875;DHT22;51595;24.180;-110.296;2022-08-21T04:44:58;29.30;99.90
63875;DHT22;51595;24.180;-110.296;2022-08-21T04:47:24;29.20;99.90
63875;DHT22;51595;24.180;-110.296;2022-08-21T04:49:51;29.20;99.90
63875;DHT22;51595;24.180;-110.296;2022-08-21T04:52:20;29.30;99.90
63875;DHT22;51595;24.180;-110.296;2022-08-21T04:54:49;29.30;99.90
63875;DHT22;51595;24.180;-110.296;2022-08-21T04:57:18;29.40;99.90
63875;DHT22;51595;24.180;-110.296;2022-08-21T04:59:48;29.20;99.90
63875;DHT22;51595;24.180;-110.296;2022-08-21T05:02:16;28.90;99.90
63875;DHT22;51595;24.180;-110.296;2022-08-21T05:04:49;28.60;99.90
63875;DHT22;51595;24.180;-110.296;2022-08-21T05:07:20;28.40;99.90
63875;DHT22;51595;24.180;-110.296;2022-08-21T05:09:47;28.20;99.90
63875;DHT22;51595;24.180;-110.296;2022-08-21T05:12:14;28.10;99.90
63875;DHT22;51595;24.180;-110.296;2022-08-21T05:14:41;28.00;99.90
63875;DHT22;51595;24.180;-110.296;2022-08-21T05:17:08;28.10;99.90
63875;DHT22;51595;24.180;-110.296;2022-08-21T05:19:35;28.00;99.90
63875;DHT22;51595;24.180;-110.296;2022-08-21T05:22:02;28.20;99.90
63875;DHT22;51595;24.180;-110.296;2022-08-21T05:24:28;28.10;99.90
63875;DHT22;51595;24.180;-110.296;2022-08-21T05:26:55;28.00;99.90
63875;DHT22;51595;24.180;-110.296;2022-08-21T05:29:22;27.90;99.90
63875;DHT22;51595;24.180;-110.296;2022-08-21T05:31:48;27.90;99.90
63875;DHT22;51595;24.180;-110.296;2022-08-21T05:34:18;27.80;99.90
63875;DHT22;51595;24.180;-110.296;2022-08-21T05:36:45;27.70;99.90
63875;DHT22;51595;24.180;-110.296;2022-08-21T05:39:12;27.70;99.90
63875;DHT22;51595;24.180;-110.296;2022-08-21T05:41:39;27.90;99.90
63875;DHT22;51595;24.180;-110.296;2022-08-21T05:44:05;28.10;99.90
63875;DHT22;51595;24.180;-110.296;2022-08-21T05:46:32;28.20;99.90
63875;DHT22;51595;24.180;-110.296;2022-08-21T05:48:58;27.90;99.90
63875;DHT22;51595;24.180;-110.296;2022-08-21T05:51:24;27.80;99.90
63875;DHT22;51595;24.180;-110.296;2022-08-21T05:53:51;27.60;99.90
63875;DHT22;51595;24.180;-110.296;2022-08-21T05:56:17;27.60;99.90
63875;DHT22;51595;24.180;-110.296;2022-08-21T05:58:44;27.50;99.90
63875;DHT22;51595;24.180;-110.296;2022-08-21T06:01:10;27.40;99.90
63875;DHT22;51595;24.180;-110.296;2022-08-21T06:03:39;27.50;99.90
63875;DHT22;51595;24.180;-110.296;2022-08-21T06:06:06;27.50;99.90
63875;DHT22;51595;24.180;-110.296;2022-08-21T06:08:33;27.60;99.90
63875;DHT22;51595;24.180;-110.296;2022-08-21T06:11:01;27.60;99.90
63875;DHT22;51595;24.180;-110.296;2022-08-21T06:13:28;27.60;99.90
63875;DHT22;51595;24.180;-110.296;2022-08-21T06:16:14;27.60;99.90
63875;DHT22;51595;24.180;-110.296;2022-08-21T06:18:41;27.70;99.90
63875;DHT22;51595;24.180;-110.296;2022-08-21T06:21:08;27.80;99.90
63875;DHT22;51595;24.180;-110.296;2022-08-21T06:23:35;27.90;99.90
63875;DHT22;51595;24.180;-110.296;2022-08-21T06:26:04;27.90;99.90
63875;DHT22;51595;24.180;-110.296;2022-08-21T06:28:32;28.00;99.90
63875;DHT22;51595;24.180;-110.296;2022-08-21T06:30:58;28.10;99.90
63875;DHT22;51595;24.180;-110.296;2022-08-21T06:33:25;27.90;99.90
63875;DHT22;51595;24.180;-110.296;2022-08-21T06:35:52;27.70;99.90
63875;DHT22;51595;24.180;-110.296;2022-08-21T06:38:18;27.70;99.90
63875;DHT22;51595;24.180;-110.296;2022-08-21T06:40:45;27.60;99.90
63875;DHT22;51595;24.180;-110.296;2022-08-21T06:43:14;27.50;99.90
63875;DHT22;51595;24.180;-110.296;2022-08-21T06:45:41;27.40;99.90
63875;DHT22;51595;24.180;-110.296;2022-08-21T06:48:08;27.60;99.90
63875;DHT22;51595;24.180;-110.296;2022-08-21T06:50:35;27.60;99.90
63875;DHT22;51595;24.180;-110.296;2022-08-21T06:53:08;27.70;99.90
63875;DHT22;51595;24.180;-110.296;2022-08-21T06:55:35;27.80;99.90
63875;DHT22;51595;24.180;-110.296;2022-08-21T06:58:03;27.80;99.90
63875;DHT22;51595;24.180;-110.296;2022-08-21T07:00:30;27.80;99.90
63875;DHT22;51595;24.180;-110.296;2022-08-21T07:02:57;27.90;99.90
63875;DHT22;51595;24.180;-110.296;2022-08-21T07:05:29;27.80;99.90
63875;DHT22;51595;24.180;-110.296;2022-08-21T07:07:56;27.80;99.90
63875;DHT22;51595;24.180;-110.296;2022-08-21T07:10:26;27.60;99.90
63875;DHT22;51595;24.180;-110.296;2022-08-21T07:12:53;27.60;99.90
63875;DHT22;51595;24.180;-110.296;2022-08-21T07:15:20;27.50;99.90
63875;DHT22;51595;24.180;-110.296;2022-08-21T07:17:47;27.40;99.90
63875;DHT22;51595;24.180;-110.296;2022-08-21T07:20:13;27.30;99.90
63875;DHT22;51595;24.180;-110.296;2022-08-21T07:22:58;27.20;99.90
63875;DHT22;51595;24.180;-110.296;2022-08-21T07:25:26;27.10;99.90
63875;DHT22;51595;24.180;-110.296;2022-08-21T07:27:55;27.00;99.90
63875;DHT22;51595;24.180;-110.296;2022-08-21T07:30:23;26.90;99.90
63875;DHT22;51595;24.180;-110.296;2022-08-21T07:32:57;26.90;99.90
63875;DHT22;51595;24.180;-110.296;2022-08-21T07:35:24;26.80;99.90
63875;DHT22;51595;24.180;-110.296;2022-08-21T07:37:51;26.80;99.90
63875;DHT22;51595;24.180;-110.296;2022-08-21T07:40:18;26.80;99.90
63875;DHT22;51595;24.180;-110.296;2022-08-21T07:42:46;26.90;99.90
63875;DHT22;51595;24.180;-110.296;2022-08-21T07:45:16;26.90;99.90
63875;DHT22;51595;24.180;-110.296;2022-08-21T07:47:42;26.90;99.90
63875;DHT22;51595;24.180;-110.296;2022-08-21T07:50:10;26.80;99.90
63875;DHT22;51595;24.180;-110.296;2022-08-21T07:52:37;26.90;99.90
63875;DHT22;51595;24.180;-110.296;2022-08-21T07:55:04;27.00;99.90
63875;DHT22;51595;24.180;-110.296;2022-08-21T07:57:31;27.00;99.90
63875;DHT22;51595;24.180;-110.296;2022-08-21T07:59:57;26.90;99.90
63875;DHT22;51595;24.180;-110.296;2022-08-21T08:02:25;26.90;99.90
63875;DHT22;51595;24.180;-110.296;2022-08-21T08:04:52;26.90;99.90
63875;DHT22;51595;24.180;-110.296;2022-08-21T08:07:19;26.90;99.90
63875;DHT22;51595;24.180;-110.296;2022-08-21T08:09:46;27.10;99.90
63875;DHT22;51595;24.180;-110.296;2022-08-21T08:12:12;27.20;99.90
63875;DHT22;51595;24.180;-110.296;2022-08-21T08:14:39;27.10;99.90
63875;DHT22;51595;24.180;-110.296;2022-08-21T08:17:05;27.00;99.90
63875;DHT22;51595;24.180;-110.296;2022-08-21T08:19:31;26.90;99.90
63875;DHT22;51595;24.180;-110.296;2022-08-21T08:21:58;26.90;99.90
63875;DHT22;51595;24.180;-110.296;2022-08-21T08:24:24;26.80;99.90
63875;DHT22;51595;24.180;-110.296;2022-08-21T08:26:51;26.80;99.90
63875;DHT22;51595;24.180;-110.296;2022-08-21T08:29:17;27.00;99.90
63875;DHT22;51595;24.180;-110.296;2022-08-21T08:31:43;27.10;99.90
63875;DHT22;51595;24.180;-110.296;2022-08-21T08:34:10;27.00;99.90
63875;DHT22;51595;24.180;-110.296;2022-08-21T08:36:37;27.00;99.90
63875;DHT22;51595;24.180;-110.296;2022-08-21T08:39:04;26.90;99.90
63875;DHT22;51595;24.180;-110.296;2022-08-21T08:41:31;26.90;99.90
63875;DHT22;51595;24.180;-110.296;2022-08-21T08:44:03;26.90;99.90
63875;DHT22;51595;24.180;-110.296;2022-08-21T08:46:41;26.90;99.90
63875;DHT22;51595;24.180;-110.296;2022-08-21T08:49:30;26.90;99.90
63875;DHT22;51595;24.180;-110.296;2022-08-21T08:52:05;26.80;99.90
63875;DHT22;51595;24.180;-110.296;2022-08-21T08:54:45;26.90;99.90
63875;DHT22;51595;24.180;-110.296;2022-08-21T08:57:18;26.90;99.90
63875;DHT22;51595;24.180;-110.296;2022-08-21T08:59:48;26.90;99.90
63875;DHT22;51595;24.180;-110.296;2022-08-21T09:02:16;26.80;99.90
63875;DHT22;51595;24.180;-110.296;2022-08-21T09:04:44;26.90;99.90
63875;DHT22;51595;24.180;-110.296;2022-08-21T09:10:13;27.00;99.90
63875;DHT22;51595;24.180;-110.296;2022-08-21T09:12:56;26.90;99.90
63875;DHT22;51595;24.180;-110.296;2022-08-21T09:15:30;26.80;99.90
63875;DHT22;51595;24.180;-110.296;2022-08-21T09:21:07;27.00;99.90
63875;DHT22;51595;24.180;-110.296;2022-08-21T09:29:24;26.80;99.90
63875;DHT22;51595;24.180;-110.296;2022-08-21T09:31:55;26.70;99.90
63875;DHT22;51595;24.180;-110.296;2022-08-21T09:34:30;26.80;99.90
63875;DHT22;51595;24.180;-110.296;2022-08-21T09:36:57;27.00;99.90
63875;DHT22;51595;24.180;-110.296;2022-08-21T09:39:30;27.00;99.90
63875;DHT22;51595;24.180;-110.296;2022-08-21T09:42:06;27.00;99.90
63875;DHT22;51595;24.180;-110.296;2022-08-21T09:44:37;27.00;99.90
63875;DHT22;51595;24.180;-110.296;2022-08-21T09:47:10;26.90;99.90
63875;DHT22;51595;24.180;-110.296;2022-08-21T09:49:42;27.10;99.90
63875;DHT22;51595;24.180;-110.296;2022-08-21T09:52:21;27.20;99.90
63875;DHT22;51595;24.180;-110.296;2022-08-21T09:54:52;27.30;99.90
63875;DHT22;51595;24.180;-110.296;2022-08-21T09:57:29;27.20;99.90
63875;DHT22;51595;24.180;-110.296;2022-08-21T10:02:46;27.10;99.90
63875;DHT22;51595;24.180;-110.296;2022-08-21T10:05:19;27.00;99.90
63875;DHT22;51595;24.180;-110.296;2022-08-21T10:07:48;26.90;99.90
63875;DHT22;51595;24.180;-110.296;2022-08-21T10:10:18;26.90;99.90
63875;DHT22;51595;24.180;-110.296;2022-08-21T10:13:17;26.90;99.90
63875;DHT22;51595;24.180;-110.296;2022-08-21T10:32:11;26.90;99.90
63875;DHT22;51595;24.180;-110.296;2022-08-21T10:37:31;26.70;99.90
63875;DHT22;51595;24.180;-110.296;2022-08-21T10:48:47;26.90;99.90
63875;DHT22;51595;24.180;-110.296;2022-08-21T10:54:26;26.90;99.90
63875;DHT22;51595;24.180;-110.296;2022-08-21T10:57:02;27.00;99.90
63875;DHT22;51595;24.180;-110.296;2022-08-21T10:59:42;26.80;99.90
63875;DHT22;51595;24.180;-110.296;2022-08-21T11:02:32;26.70;99.90
63875;DHT22;51595;24.180;-110.296;2022-08-21T11:05:13;26.80;99.90
63875;DHT22;51595;24.180;-110.296;2022-08-21T11:10:23;26.60;99.90
63875;DHT22;51595;24.180;-110.296;2022-08-21T11:13:04;26.60;99.90
63875;DHT22;51595;24.180;-110.296;2022-08-21T11:15:56;26.70;99.90
63875;DHT22;51595;24.180;-110.296;2022-08-21T11:18:34;26.90;99.90
63875;DHT22;51595;24.180;-110.296;2022-08-21T11:27:45;27.00;99.90
63875;DHT22;51595;24.180;-110.296;2022-08-21T11:29:41;27.10;99.90
63875;DHT22;51595;24.180;-110.296;2022-08-21T11:40:46;27.10;99.90
63875;DHT22;51595;24.180;-110.296;2022-08-21T11:43:38;27.10;99.90
63875;DHT22;51595;24.180;-110.296;2022-08-21T11:49:08;27.20;99.90
63875;DHT22;51595;24.180;-110.296;2022-08-21T11:52:04;27.20;99.90
63875;DHT22;51595;24.180;-110.296;2022-08-21T11:57:43;27.10;99.90
63875;DHT22;51595;24.180;-110.296;2022-08-21T12:00:34;27.30;99.90
63875;DHT22;51595;24.180;-110.296;2022-08-21T12:03:15;27.40;99.90
63875;DHT22;51595;24.180;-110.296;2022-08-21T12:05:53;27.30;99.90
63875;DHT22;51595;24.180;-110.296;2022-08-21T12:08:46;27.20;99.90
63875;DHT22;51595;24.180;-110.296;2022-08-21T12:11:24;27.00;99.90
63875;DHT22;51595;24.180;-110.296;2022-08-21T12:24:44;26.90;99.90
63875;DHT22;51595;24.180;-110.296;2022-08-21T12:29:59;27.00;99.90
63875;DHT22;51595;24.180;-110.296;2022-08-21T12:32:54;27.10;99.90
63875;DHT22;51595;24.180;-110.296;2022-08-21T12:35:41;27.00;99.90
63875;DHT22;51595;24.180;-110.296;2022-08-21T12:38:20;27.00;99.90
63875;DHT22;51595;24.180;-110.296;2022-08-21T12:40:52;27.00;99.90
63875;DHT22;51595;24.180;-110.296;2022-08-21T12:43:40;27.10;99.90
63875;DHT22;51595;24.180;-110.296;2022-08-21T12:46:19;27.20;99.90
63875;DHT22;51595;24.180;-110.296;2022-08-21T12:48:52;27.20;99.90
63875;DHT22;51595;24.180;-110.296;2022-08-21T12:51:38;27.30;99.90
63875;DHT22;51595;24.180;-110.296;2022-08-21T12:54:08;27.30;99.90
63875;DHT22;51595;24.180;-110.296;2022-08-21T12:56:35;27.20;99.90
63875;DHT22;51595;24.180;-110.296;2022-08-21T12:59:07;27.20;99.90
63875;DHT22;51595;24.180;-110.296;2022-08-21T13:01:43;27.30;99.90
63875;DHT22;51595;24.180;-110.296;2022-08-21T13:04:21;27.30;99.90
63875;DHT22;51595;24.180;-110.296;2022-08-21T13:06:51;27.20;99.90
63875;DHT22;51595;24.180;-110.296;2022-08-21T13:09:29;27.20;99.90
63875;DHT22;51595;24.180;-110.296;2022-08-21T13:11:57;27.10;99.90
63875;DHT22;51595;24.180;-110.296;2022-08-21T13:16:59;27.00;99.90
63875;DHT22;51595;24.180;-110.296;2022-08-21T13:19:26;27.10;99.90
63875;DHT22;51595;24.180;-110.296;2022-08-21T13:21:53;27.10;99.90
63875;DHT22;51595;24.180;-110.296;2022-08-21T13:24:28;27.20;99.90
63875;DHT22;51595;24.180;-110.296;2022-08-21T13:26:56;27.10;99.90
63875;DHT22;51595;24.180;-110.296;2022-08-21T13:29:30;27.20;99.90
63875;DHT22;51595;24.180;-110.296;2022-08-21T13:32:00;27.20;99.90
63875;DHT22;51595;24.180;-110.296;2022-08-21T13:34:31;27.20;99.90
63875;DHT22;51595;24.180;-110.296;2022-08-21T13:37:02;27.30;99.90
63875;DHT22;51595;24.180;-110.296;2022-08-21T13:39:29;27.30;99.90
63875;DHT22;51595;24.180;-110.296;2022-08-21T13:41:59;27.40;99.90
63875;DHT22;51595;24.180;-110.296;2022-08-21T13:44:44;27.30;99.90
63875;DHT22;51595;24.180;-110.296;2022-08-21T13:47:13;27.50;99.90
63875;DHT22;51595;24.180;-110.296;2022-08-21T13:49:43;27.50;99.90
63875;DHT22;51595;24.180;-110.296;2022-08-21T13:52:23;27.80;99.90
63875;DHT22;51595;24.180;-110.296;2022-08-21T13:54:59;28.10;99.90
63875;DHT22;51595;24.180;-110.296;2022-08-21T13:57:35;28.30;99.90
63875;DHT22;51595;24.180;-110.296;2022-08-21T14:00:43;28.50;99.90
63875;DHT22;51595;24.180;-110.296;2022-08-21T14:03:09;28.60;99.90
63875;DHT22;51595;24.180;-110.296;2022-08-21T14:05:45;28.80;99.90
63875;DHT22;51595;24.180;-110.296;2022-08-21T14:08:34;29.00;99.90
63875;DHT22;51595;24.180;-110.296;2022-08-21T14:11:04;29.20;99.90
63875;DHT22;51595;24.180;-110.296;2022-08-21T14:16:02;29.40;99.90
63875;DHT22;51595;24.180;-110.296;2022-08-21T14:18:29;29.50;99.90
63875;DHT22;51595;24.180;-110.296;2022-08-21T14:21:14;29.50;99.90
63875;DHT22;51595;24.180;-110.296;2022-08-21T14:24:06;29.70;99.90
63875;DHT22;51595;24.180;-110.296;2022-08-21T14:26:43;30.10;99.90
63875;DHT22;51595;24.180;-110.296;2022-08-21T14:29:11;30.10;99.90
63875;DHT22;51595;24.180;-110.296;2022-08-21T14:31:38;30.20;99.90
63875;DHT22;51595;24.180;-110.296;2022-08-21T14:34:05;30.60;99.90
63875;DHT22;51595;24.180;-110.296;2022-08-21T14:36:34;31.00;99.90
63875;DHT22;51595;24.180;-110.296;2022-08-21T14:39:00;31.00;99.90
63875;DHT22;51595;24.180;-110.296;2022-08-21T14:41:28;30.90;99.90
63875;DHT22;51595;24.180;-110.296;2022-08-21T14:43:56;30.90;99.90
63875;DHT22;51595;24.180;-110.296;2022-08-21T14:46:27;31.10;99.90
63875;DHT22;51595;24.180;-110.296;2022-08-21T14:48:55;31.10;99.90
63875;DHT22;51595;24.180;-110.296;2022-08-21T14:51:21;31.20;99.90
63875;DHT22;51595;24.180;-110.296;2022-08-21T14:53:48;31.60;99.90
63875;DHT22;51595;24.180;-110.296;2022-08-21T15:08:22;32.00;99.90
63875;DHT22;51595;24.180;-110.296;2022-08-21T15:10:49;33.10;99.90
63875;DHT22;51595;24.180;-110.296;2022-08-21T15:13:15;33.10;99.90
63875;DHT22;51595;24.180;-110.296;2022-08-21T15:15:44;32.90;99.90
63875;DHT22;51595;24.180;-110.296;2022-08-21T15:18:11;32.80;99.90
63875;DHT22;51595;24.180;-110.296;2022-08-21T15:20:38;32.90;99.90
63875;DHT22;51595;24.180;-110.296;2022-08-21T15:23:07;32.90;99.90
63875;DHT22;51595;24.180;-110.296;2022-08-21T15:25:34;32.40;99.90
63875;DHT22;51595;24.180;-110.296;2022-08-21T15:28:02;32.40;99.90
63875;DHT22;51595;24.180;-110.296;2022-08-21T15:30:30;32.50;99.90
63875;DHT22;51595;24.180;-110.296;2022-08-21T15:32:57;32.70;99.90
63875;DHT22;51595;24.180;-110.296;2022-08-21T15:35:24;32.90;99.90
63875;DHT22;51595;24.180;-110.296;2022-08-21T15:37:50;33.00;99.90
63875;DHT22;51595;24.180;-110.296;2022-08-21T15:40:18;33.20;99.90
63875;DHT22;51595;24.180;-110.296;2022-08-21T15:42:45;33.50;99.90
63875;DHT22;51595;24.180;-110.296;2022-08-21T15:45:13;33.80;99.90
63875;DHT22;51595;24.180;-110.296;2022-08-21T15:47:43;33.90;99.90
63875;DHT22;51595;24.180;-110.296;2022-08-21T15:50:12;34.10;99.90
63875;DHT22;51595;24.180;-110.296;2022-08-21T15:52:39;34.30;99.90
63875;DHT22;51595;24.180;-110.296;2022-08-21T15:55:06;34.50;99.90
63875;DHT22;51595;24.180;-110.296;2022-08-21T15:57:35;34.70;99.90
63875;DHT22;51595;24.180;-110.296;2022-08-21T16:00:14;34.70;99.90
63875;DHT22;51595;24.180;-110.296;2022-08-21T16:02:47;34.80;99.90
63875;DHT22;51595;24.180;-110.296;2022-08-21T16:05:16;34.80;99.90
63875;DHT22;51595;24.180;-110.296;2022-08-21T16:07:45;34.90;99.90
63875;DHT22;51595;24.180;-110.296;2022-08-21T16:10:13;35.00;99.90
63875;DHT22;51595;24.180;-110.296;2022-08-21T16:12:46;34.30;99.90
63875;DHT22;51595;24.180;-110.296;2022-08-21T16:15:14;34.20;99.90
63875;DHT22;51595;24.180;-110.296;2022-08-21T16:17:45;34.40;99.90
63875;DHT22;51595;24.180;-110.296;2022-08-21T16:20:22;34.70;99.90
63875;DHT22;51595;24.180;-110.296;2022-08-21T16:22:51;34.90;99.90
63875;DHT22;51595;24.180;-110.296;2022-08-21T16:25:18;35.00;99.90
63875;DHT22;51595;24.180;-110.296;2022-08-21T16:27:47;34.90;99.90
63875;DHT22;51595;24.180;-110.296;2022-08-21T16:30:15;34.90;99.90
63875;DHT22;51595;24.180;-110.296;2022-08-21T16:32:43;34.90;99.90
63875;DHT22;51595;24.180;-110.296;2022-08-21T16:35:12;35.30;99.90
63875;DHT22;51595;24.180;-110.296;2022-08-21T16:37:39;35.30;99.90
63875;DHT22;51595;24.180;-110.296;2022-08-21T16:40:07;35.20;99.90
63875;DHT22;51595;24.180;-110.296;2022-08-21T16:42:36;35.10;99.90
63875;DHT22;51595;24.180;-110.296;2022-08-21T16:45:10;35.00;99.90